sensor_id;sensor_type;location;lat;lon;timestamp;temperature;humidity
74488;DHT22;63019;51.080;13.642;2023-04-22T00:01:00;10.30;99.90
74488;DHT22;63019;51.080;13.642;2023-04-22T00:02:02;10.30;99.90
74488;DHT22;63019;51.080;13.642;2023-04-22T00:03:04;10.30;99.90
74488;DHT22;63019;51.080;13.642;2023-04-22T00:04:07;10.30;99.90
74488;DHT22;63019;51.080;13.642;2023-04-22T00:05:10;10.30;99.90
74488;DHT22;63019;51.080;13.642;2023-04-22T00:06:17;10.30;99.90
74488;DHT22;63019;51.080;13.642;2023-04-22T00:07:19;10.20;99.90
74488;DHT22;63019;51.080;13.642;2023-04-22T00:08:21;10.20;99.90
74488;DHT22;63019;51.080;13.642;2023-04-22T00:09:23;10.20;99.90
74488;DHT22;63019;51.080;13.642;2023-04-22T00:10:24;10.20;99.90
74488;DHT22;63019;51.080;13.642;2023-04-22T00:11:26;10.10;99.90
74488;DHT22;63019;51.080;13.642;2023-04-22T00:12:28;10.10;99.90
74488;DHT22;63019;51.080;13.642;2023-04-22T00:13:33;10.10;99.90
74488;DHT22;63019;51.080;13.642;2023-04-22T00:14:36;10.10;99.90
74488;DHT22;63019;51.080;13.642;2023-04-22T00:15:38;10.10;99.90
74488;DHT22;63019;51.080;13.642;2023-04-22T00:16:40;10.10;99.90
74488;DHT22;63019;51.080;13.642;2023-04-22T00:17:42;10.10;99.90
74488;DHT22;63019;51.080;13.642;2023-04-22T00:18:47;10.10;99.90
74488;DHT22;63019;51.080;13.642;2023-04-22T00:19:49;10.10;99.90
74488;DHT22;63019;51.080;13.642;2023-04-22T00:20:51;10.10;99.90
74488;DHT22;63019;51.080;13.642;2023-04-22T00:21:53;10.10;99.90
74488;DHT22;63019;51.080;13.642;2023-04-22T00:22:55;10.10;99.90
74488;DHT22;63019;51.080;13.642;2023-04-22T00:23:57;10.10;99.90
74488;DHT22;63019;51.080;13.642;2023-04-22T00:24:59;10.10;99.90
74488;DHT22;63019;51.080;13.642;2023-04-22T00:26:01;10.10;99.90
74488;DHT22;63019;51.080;13.642;2023-04-22T00:27:03;10.10;99.90
74488;DHT22;63019;51.080;13.642;2023-04-22T00:28:05;10.10;99.90
74488;DHT22;63019;51.080;13.642;2023-04-22T00:29:07;10.10;99.90
74488;DHT22;63019;51.080;13.642;2023-04-22T00:30:09;10.10;99.90
74488;DHT22;63019;51.080;13.642;2023-04-22T00:31:11;10.10;99.90
74488;DHT22;63019;51.080;13.642;2023-04-22T00:32:13;10.10;99.90
74488;DHT22;63019;51.080;13.642;2023-04-22T00:33:15;10.10;99.90
74488;DHT22;63019;51.080;13.642;2023-04-22T00:34:16;10.10;99.90
74488;DHT22;63019;51.080;13.642;2023-04-22T00:35:18;10.10;99.90
74488;DHT22;63019;51.080;13.642;2023-04-22T00:36:20;10.10;99.90
74488;DHT22;63019;51.080;13.642;2023-04-22T00:37:23;10.10;99.90
74488;DHT22;63019;51.080;13.642;2023-04-22T00:38:25;10.10;99.90
74488;DHT22;63019;51.080;13.642;2023-04-22T00:39:26;10.10;99.90
74488;DHT22;63019;51.080;13.642;2023-04-22T00:40:28;10.10;99.90
74488;DHT22;63019;51.080;13.642;2023-04-22T00:41:31;10.10;99.90
74488;DHT22;63019;51.080;13.642;2023-04-22T00:42:33;10.10;99.90
74488;DHT22;63019;51.080;13.642;2023-04-22T00:43:35;10.10;99.90
74488;DHT22;63019;51.080;13.642;2023-04-22T00:44:37;10.10;99.90
74488;DHT22;63019;51.080;13.642;2023-04-22T00:45:41;10.10;99.90
74488;DHT22;63019;51.080;13.642;2023-04-22T00:46:44;10.10;99.90
74488;DHT22;63019;51.080;13.642;2023-04-22T00:47:46;10.10;99.90
74488;DHT22;63019;51.080;13.642;2023-04-22T00:48:49;10.10;99.90
74488;DHT22;63019;51.080;13.642;2023-04-22T00:49:52;10.10;99.90
74488;DHT22;63019;51.080;13.642;2023-04-22T00:50:54;10.10;99.90
74488;DHT22;63019;51.080;13.642;2023-04-22T00:51:56;10.10;99.90
74488;DHT22;63019;51.080;13.642;2023-04-22T00:52:58;10.10;99.90
74488;DHT22;63019;51.080;13.642;2023-04-22T00:54:00;10.10;99.90
74488;DHT22;63019;51.080;13.642;2023-04-22T00:55:02;10.10;99.90
74488;DHT22;63019;51.080;13.642;2023-04-22T00:56:05;10.10;99.90
74488;DHT22;63019;51.080;13.642;2023-04-22T00:57:07;10.10;99.90
74488;DHT22;63019;51.080;13.642;2023-04-22T00:58:09;10.10;99.90
74488;DHT22;63019;51.080;13.642;2023-04-22T00:59:11;10.10;99.90
74488;DHT22;63019;51.080;13.642;2023-04-22T01:00:14;10.10;99.90
74488;DHT22;63019;51.080;13.642;2023-04-22T01:01:15;10.00;99.90
74488;DHT22;63019;51.080;13.642;2023-04-22T01:02:18;10.00;99.90
74488;DHT22;63019;51.080;13.642;2023-04-22T01:03:20;10.00;99.90
74488;DHT22;63019;51.080;13.642;2023-04-22T01:04:23;10.00;99.90
74488;DHT22;63019;51.080;13.642;2023-04-22T01:05:26;9.90;99.90
74488;DHT22;63019;51.080;13.642;2023-04-22T01:06:29;9.90;99.90
74488;DHT22;63019;51.080;13.642;2023-04-22T01:07:34;9.90;99.90
74488;DHT22;63019;51.080;13.642;2023-04-22T01:08:37;9.90;99.90
74488;DHT22;63019;51.080;13.642;2023-04-22T01:09:40;9.90;99.90
74488;DHT22;63019;51.080;13.642;2023-04-22T01:10:42;9.90;99.90
74488;DHT22;63019;51.080;13.642;2023-04-22T01:11:44;9.80;99.90
74488;DHT22;63019;51.080;13.642;2023-04-22T01:12:46;9.80;99.90
74488;DHT22;63019;51.080;13.642;2023-04-22T01:13:48;9.80;99.90
74488;DHT22;63019;51.080;13.642;2023-04-22T01:14:50;9.80;99.90
74488;DHT22;63019;51.080;13.642;2023-04-22T01:15:52;9.80;99.90
74488;DHT22;63019;51.080;13.642;2023-04-22T01:16:55;9.80;99.90
74488;DHT22;63019;51.080;13.642;2023-04-22T01:17:58;9.70;99.90
74488;DHT22;63019;51.080;13.642;2023-04-22T01:19:01;9.70;99.90
74488;DHT22;63019;51.080;13.642;2023-04-22T01:20:03;9.70;99.90
74488;DHT22;63019;51.080;13.642;2023-04-22T01:21:05;9.70;99.90
74488;DHT22;63019;51.080;13.642;2023-04-22T01:22:09;9.70;99.90
74488;DHT22;63019;51.080;13.642;2023-04-22T01:23:18;9.70;99.90
74488;DHT22;63019;51.080;13.642;2023-04-22T01:24:20;9.70;99.90
74488;DHT22;63019;51.080;13.642;2023-04-22T01:25:23;9.70;99.90
74488;DHT22;63019;51.080;13.642;2023-04-22T01:26:25;9.60;99.90
74488;DHT22;63019;51.080;13.642;2023-04-22T01:27:27;9.60;99.90
74488;DHT22;63019;51.080;13.642;2023-04-22T01:28:29;9.60;99.90
74488;DHT22;63019;51.080;13.642;2023-04-22T01:29:32;9.60;99.90
74488;DHT22;63019;51.080;13.642;2023-04-22T01:30:34;9.50;99.90
74488;DHT22;63019;51.080;13.642;2023-04-22T01:31:36;9.50;99.90
74488;DHT22;63019;51.080;13.642;2023-04-22T01:32:39;9.50;99.90
74488;DHT22;63019;51.080;13.642;2023-04-22T01:33:41;9.40;99.90
74488;DHT22;63019;51.080;13.642;2023-04-22T01:34:44;9.40;99.90
74488;DHT22;63019;51.080;13.642;2023-04-22T01:35:46;9.40;99.90
74488;DHT22;63019;51.080;13.642;2023-04-22T01:36:49;9.40;99.90
74488;DHT22;63019;51.080;13.642;2023-04-22T01:37:51;9.40;99.90
74488;DHT22;63019;51.080;13.642;2023-04-22T01:38:54;9.40;99.90
74488;DHT22;63019;51.080;13.642;2023-04-22T01:39:57;9.30;99.90
74488;DHT22;63019;51.080;13.642;2023-04-22T01:41:02;9.30;99.90
74488;DHT22;63019;51.080;13.642;2023-04-22T01:42:04;9.30;99.90
74488;DHT22;63019;51.080;13.642;2023-04-22T01:43:06;9.30;99.90
74488;DHT22;63019;51.080;13.642;2023-04-22T01:44:08;9.30;99.90
74488;DHT22;63019;51.080;13.642;2023-04-22T01:45:11;9.30;99.90
74488;DHT22;63019;51.080;13.642;2023-04-22T01:46:16;9.30;99.90
74488;DHT22;63019;51.080;13.642;2023-04-22T01:47:18;9.30;99.90
74488;DHT22;63019;51.080;13.642;2023-04-22T01:48:20;9.30;99.90
74488;DHT22;63019;51.080;13.642;2023-04-22T01:49:22;9.30;99.90
74488;DHT22;63019;51.080;13.642;2023-04-22T01:50:23;9.30;99.90
74488;DHT22;63019;51.080;13.642;2023-04-22T01:51:25;9.30;99.90
74488;DHT22;63019;51.080;13.642;2023-04-22T01:52:27;9.30;99.90
74488;DHT22;63019;51.080;13.642;2023-04-22T01:53:29;9.30;99.90
74488;DHT22;63019;51.080;13.642;2023-04-22T01:54:32;9.30;99.90
74488;DHT22;63019;51.080;13.642;2023-04-22T01:55:34;9.30;99.90
74488;DHT22;63019;51.080;13.642;2023-04-22T01:56:36;9.30;99.90
74488;DHT22;63019;51.080;13.642;2023-04-22T01:57:40;9.30;99.90
74488;DHT22;63019;51.080;13.642;2023-04-22T01:58:43;9.30;99.90
74488;DHT22;63019;51.080;13.642;2023-04-22T01:59:44;9.30;99.90
74488;DHT22;63019;51.080;13.642;2023-04-22T02:00:46;9.30;99.90
74488;DHT22;63019;51.080;13.642;2023-04-22T02:01:48;9.30;99.90
74488;DHT22;63019;51.080;13.642;2023-04-22T02:02:50;9.20;99.90
74488;DHT22;63019;51.080;13.642;2023-04-22T02:03:52;9.20;99.90
74488;DHT22;63019;51.080;13.642;2023-04-22T02:04:56;9.20;99.90
74488;DHT22;63019;51.080;13.642;2023-04-22T02:05:58;9.20;99.90
74488;DHT22;63019;51.080;13.642;2023-04-22T02:07:00;9.10;99.90
74488;DHT22;63019;51.080;13.642;2023-04-22T02:08:02;9.10;99.90
74488;DHT22;63019;51.080;13.642;2023-04-22T02:09:04;9.10;99.90
74488;DHT22;63019;51.080;13.642;2023-04-22T02:10:06;9.10;99.90
74488;DHT22;63019;51.080;13.642;2023-04-22T02:11:09;9.10;99.90
74488;DHT22;63019;51.080;13.642;2023-04-22T02:12:11;9.00;99.90
74488;DHT22;63019;51.080;13.642;2023-04-22T02:13:13;9.00;99.90
74488;DHT22;63019;51.080;13.642;2023-04-22T02:14:15;9.00;99.90
74488;DHT22;63019;51.080;13.642;2023-04-22T02:15:17;8.90;99.90
74488;DHT22;63019;51.080;13.642;2023-04-22T02:16:18;9.00;99.90
74488;DHT22;63019;51.080;13.642;2023-04-22T02:17:23;8.90;99.90
74488;DHT22;63019;51.080;13.642;2023-04-22T02:18:25;8.90;99.90
74488;DHT22;63019;51.080;13.642;2023-04-22T02:19:27;8.80;99.90
74488;DHT22;63019;51.080;13.642;2023-04-22T02:20:29;8.80;99.90
74488;DHT22;63019;51.080;13.642;2023-04-22T02:21:31;8.80;99.90
74488;DHT22;63019;51.080;13.642;2023-04-22T02:22:33;8.70;99.90
74488;DHT22;63019;51.080;13.642;2023-04-22T02:23:38;8.70;99.90
74488;DHT22;63019;51.080;13.642;2023-04-22T02:24:40;8.70;99.90
74488;DHT22;63019;51.080;13.642;2023-04-22T02:25:50;8.70;99.90
74488;DHT22;63019;51.080;13.642;2023-04-22T02:26:52;8.70;99.90
74488;DHT22;63019;51.080;13.642;2023-04-22T02:27:54;8.60;99.90
74488;DHT22;63019;51.080;13.642;2023-04-22T02:28:56;8.60;99.90
74488;DHT22;63019;51.080;13.642;2023-04-22T02:29:58;8.60;99.90
74488;DHT22;63019;51.080;13.642;2023-04-22T02:31:00;8.60;99.90
74488;DHT22;63019;51.080;13.642;2023-04-22T02:32:02;8.60;99.90
74488;DHT22;63019;51.080;13.642;2023-04-22T02:33:03;8.60;99.90
74488;DHT22;63019;51.080;13.642;2023-04-22T02:34:05;8.60;99.90
74488;DHT22;63019;51.080;13.642;2023-04-22T02:35:08;8.60;99.90
74488;DHT22;63019;51.080;13.642;2023-04-22T02:36:10;8.60;99.90
74488;DHT22;63019;51.080;13.642;2023-04-22T02:37:12;8.60;99.90
74488;DHT22;63019;51.080;13.642;2023-04-22T02:38:14;8.50;99.90
74488;DHT22;63019;51.080;13.642;2023-04-22T02:39:16;8.50;99.90
74488;DHT22;63019;51.080;13.642;2023-04-22T02:40:18;8.50;99.90
74488;DHT22;63019;51.080;13.642;2023-04-22T02:41:19;8.50;99.90
74488;DHT22;63019;51.080;13.642;2023-04-22T02:42:21;8.40;99.90
74488;DHT22;63019;51.080;13.642;2023-04-22T02:43:23;8.40;99.90
74488;DHT22;63019;51.080;13.642;2023-04-22T02:44:25;8.40;99.90
74488;DHT22;63019;51.080;13.642;2023-04-22T02:45:27;8.30;99.90
74488;DHT22;63019;51.080;13.642;2023-04-22T02:46:28;8.30;99.90
74488;DHT22;63019;51.080;13.642;2023-04-22T02:47:30;8.40;99.90
74488;DHT22;63019;51.080;13.642;2023-04-22T02:48:32;8.40;99.90
74488;DHT22;63019;51.080;13.642;2023-04-22T02:49:34;8.40;99.90
74488;DHT22;63019;51.080;13.642;2023-04-22T02:50:36;8.40;99.90
74488;DHT22;63019;51.080;13.642;2023-04-22T02:51:37;8.40;99.90
74488;DHT22;63019;51.080;13.642;2023-04-22T02:52:40;8.50;99.90
74488;DHT22;63019;51.080;13.642;2023-04-22T02:53:41;8.50;99.90
74488;DHT22;63019;51.080;13.642;2023-04-22T02:54:43;8.50;99.90
74488;DHT22;63019;51.080;13.642;2023-04-22T02:55:45;8.50;99.90
74488;DHT22;63019;51.080;13.642;2023-04-22T02:56:47;8.50;99.90
74488;DHT22;63019;51.080;13.642;2023-04-22T02:57:49;8.60;99.90
74488;DHT22;63019;51.080;13.642;2023-04-22T02:58:51;8.60;99.90
74488;DHT22;63019;51.080;13.642;2023-04-22T02:59:52;8.60;99.90
74488;DHT22;63019;51.080;13.642;2023-04-22T03:00:54;8.60;99.90
74488;DHT22;63019;51.080;13.642;2023-04-22T03:01:58;8.60;99.90
74488;DHT22;63019;51.080;13.642;2023-04-22T03:03:00;8.60;99.90
74488;DHT22;63019;51.080;13.642;2023-04-22T03:04:02;8.70;99.90
74488;DHT22;63019;51.080;13.642;2023-04-22T03:05:04;8.70;99.90
74488;DHT22;63019;51.080;13.642;2023-04-22T03:06:06;8.70;99.90
74488;DHT22;63019;51.080;13.642;2023-04-22T03:07:08;8.70;99.90
74488;DHT22;63019;51.080;13.642;2023-04-22T03:08:10;8.60;99.90
74488;DHT22;63019;51.080;13.642;2023-04-22T03:09:12;8.60;99.90
74488;DHT22;63019;51.080;13.642;2023-04-22T03:10:14;8.60;99.90
74488;DHT22;63019;51.080;13.642;2023-04-22T03:11:16;8.60;99.90
74488;DHT22;63019;51.080;13.642;2023-04-22T03:12:17;8.60;99.90
74488;DHT22;63019;51.080;13.642;2023-04-22T03:13:19;8.60;99.90
74488;DHT22;63019;51.080;13.642;2023-04-22T03:14:21;8.60;99.90
74488;DHT22;63019;51.080;13.642;2023-04-22T03:15:23;8.50;99.90
74488;DHT22;63019;51.080;13.642;2023-04-22T03:16:25;8.50;99.90
74488;DHT22;63019;51.080;13.642;2023-04-22T03:17:27;8.50;99.90
74488;DHT22;63019;51.080;13.642;2023-04-22T03:18:28;8.50;99.90
74488;DHT22;63019;51.080;13.642;2023-04-22T03:19:30;8.50;99.90
74488;DHT22;63019;51.080;13.642;2023-04-22T03:20:33;8.50;99.90
74488;DHT22;63019;51.080;13.642;2023-04-22T03:21:35;8.50;99.90
74488;DHT22;63019;51.080;13.642;2023-04-22T03:22:36;8.50;99.90
74488;DHT22;63019;51.080;13.642;2023-04-22T03:23:38;8.50;99.90
74488;DHT22;63019;51.080;13.642;2023-04-22T03:24:40;8.50;99.90
74488;DHT22;63019;51.080;13.642;2023-04-22T03:25:42;8.50;99.90
74488;DHT22;63019;51.080;13.642;2023-04-22T03:26:44;8.50;99.90
74488;DHT22;63019;51.080;13.642;2023-04-22T03:27:45;8.50;99.90
74488;DHT22;63019;51.080;13.642;2023-04-22T03:28:47;8.50;99.90
74488;DHT22;63019;51.080;13.642;2023-04-22T03:29:49;8.50;99.90
74488;DHT22;63019;51.080;13.642;2023-04-22T03:30:51;8.50;99.90
74488;DHT22;63019;51.080;13.642;2023-04-22T03:31:53;8.50;99.90
74488;DHT22;63019;51.080;13.642;2023-04-22T03:32:55;8.50;99.90
74488;DHT22;63019;51.080;13.642;2023-04-22T03:33:57;8.50;99.90
74488;DHT22;63019;51.080;13.642;2023-04-22T03:34:58;8.50;99.90
74488;DHT22;63019;51.080;13.642;2023-04-22T03:36:00;8.50;99.90
74488;DHT22;63019;51.080;13.642;2023-04-22T03:37:02;8.60;99.90
74488;DHT22;63019;51.080;13.642;2023-04-22T03:38:04;8.50;99.90
74488;DHT22;63019;51.080;13.642;2023-04-22T03:39:06;8.60;99.90
74488;DHT22;63019;51.080;13.642;2023-04-22T03:40:08;8.60;99.90
74488;DHT22;63019;51.080;13.642;2023-04-22T03:41:10;8.60;99.90
74488;DHT22;63019;51.080;13.642;2023-04-22T03:42:13;8.60;99.90
74488;DHT22;63019;51.080;13.642;2023-04-22T03:43:15;8.60;99.90
74488;DHT22;63019;51.080;13.642;2023-04-22T03:44:16;8.60;99.90
74488;DHT22;63019;51.080;13.642;2023-04-22T03:45:18;8.60;99.90
74488;DHT22;63019;51.080;13.642;2023-04-22T03:46:20;8.60;99.90
74488;DHT22;63019;51.080;13.642;2023-04-22T03:47:22;8.60;99.90
74488;DHT22;63019;51.080;13.642;2023-04-22T03:48:24;8.60;99.90
74488;DHT22;63019;51.080;13.642;2023-04-22T03:49:26;8.60;99.90
74488;DHT22;63019;51.080;13.642;2023-04-22T03:50:28;8.70;99.90
74488;DHT22;63019;51.080;13.642;2023-04-22T03:51:30;8.70;99.90
74488;DHT22;63019;51.080;13.642;2023-04-22T03:52:31;8.70;99.90
74488;DHT22;63019;51.080;13.642;2023-04-22T03:53:33;8.70;99.90
74488;DHT22;63019;51.080;13.642;2023-04-22T03:54:35;8.60;99.90
74488;DHT22;63019;51.080;13.642;2023-04-22T03:55:37;8.70;99.90
74488;DHT22;63019;51.080;13.642;2023-04-22T03:56:39;8.70;99.90
74488;DHT22;63019;51.080;13.642;2023-04-22T03:57:40;8.70;99.90
74488;DHT22;63019;51.080;13.642;2023-04-22T03:58:42;8.70;99.90
74488;DHT22;63019;51.080;13.642;2023-04-22T03:59:44;8.70;99.90
74488;DHT22;63019;51.080;13.642;2023-04-22T04:00:46;8.70;99.90
74488;DHT22;63019;51.080;13.642;2023-04-22T04:01:50;8.70;99.90
74488;DHT22;63019;51.080;13.642;2023-04-22T04:02:52;8.70;99.90
74488;DHT22;63019;51.080;13.642;2023-04-22T04:03:54;8.70;99.90
74488;DHT22;63019;51.080;13.642;2023-04-22T04:04:56;8.70;99.90
74488;DHT22;63019;51.080;13.642;2023-04-22T04:05:58;8.70;99.90
74488;DHT22;63019;51.080;13.642;2023-04-22T04:07:01;8.70;99.90
74488;DHT22;63019;51.080;13.642;2023-04-22T04:08:02;8.70;99.90
74488;DHT22;63019;51.080;13.642;2023-04-22T04:09:04;8.70;99.90
74488;DHT22;63019;51.080;13.642;2023-04-22T04:10:07;8.70;99.90
74488;DHT22;63019;51.080;13.642;2023-04-22T04:11:09;8.70;99.90
74488;DHT22;63019;51.080;13.642;2023-04-22T04:12:11;8.60;99.90
74488;DHT22;63019;51.080;13.642;2023-04-22T04:13:13;8.70;99.90
74488;DHT22;63019;51.080;13.642;2023-04-22T04:14:15;8.70;99.90
74488;DHT22;63019;51.080;13.642;2023-04-22T04:15:17;8.70;99.90
74488;DHT22;63019;51.080;13.642;2023-04-22T04:16:22;8.70;99.90
74488;DHT22;63019;51.080;13.642;2023-04-22T04:17:23;8.70;99.90
74488;DHT22;63019;51.080;13.642;2023-04-22T04:18:26;8.70;99.90
74488;DHT22;63019;51.080;13.642;2023-04-22T04:19:30;8.60;99.90
74488;DHT22;63019;51.080;13.642;2023-04-22T04:20:31;8.60;99.90
74488;DHT22;63019;51.080;13.642;2023-04-22T04:21:33;8.60;99.90
74488;DHT22;63019;51.080;13.642;2023-04-22T04:22:35;8.60;99.90
74488;DHT22;63019;51.080;13.642;2023-04-22T04:23:38;8.60;99.90
74488;DHT22;63019;51.080;13.642;2023-04-22T04:24:39;8.60;99.90
74488;DHT22;63019;51.080;13.642;2023-04-22T04:25:43;8.60;99.90
74488;DHT22;63019;51.080;13.642;2023-04-22T04:26:45;8.70;99.90
74488;DHT22;63019;51.080;13.642;2023-04-22T04:27:46;8.70;99.90
74488;DHT22;63019;51.080;13.642;2023-04-22T04:28:48;8.70;99.90
74488;DHT22;63019;51.080;13.642;2023-04-22T04:29:50;8.70;99.90
74488;DHT22;63019;51.080;13.642;2023-04-22T04:30:53;8.70;99.90
74488;DHT22;63019;51.080;13.642;2023-04-22T04:31:54;8.80;99.90
74488;DHT22;63019;51.080;13.642;2023-04-22T04:32:58;8.70;99.90
74488;DHT22;63019;51.080;13.642;2023-04-22T04:33:59;8.80;99.90
74488;DHT22;63019;51.080;13.642;2023-04-22T04:35:01;8.80;99.90
74488;DHT22;63019;51.080;13.642;2023-04-22T04:36:04;8.80;99.90
74488;DHT22;63019;51.080;13.642;2023-04-22T04:37:06;8.80;99.90
74488;DHT22;63019;51.080;13.642;2023-04-22T04:38:08;8.80;99.90
74488;DHT22;63019;51.080;13.642;2023-04-22T04:39:10;8.80;99.90
74488;DHT22;63019;51.080;13.642;2023-04-22T04:40:12;8.80;99.90
74488;DHT22;63019;51.080;13.642;2023-04-22T04:41:14;8.90;99.90
74488;DHT22;63019;51.080;13.642;2023-04-22T04:42:16;8.90;99.90
74488;DHT22;63019;51.080;13.642;2023-04-22T04:43:18;8.90;99.90
74488;DHT22;63019;51.080;13.642;2023-04-22T04:44:20;8.90;99.90
74488;DHT22;63019;51.080;13.642;2023-04-22T04:45:27;8.90;99.90
74488;DHT22;63019;51.080;13.642;2023-04-22T04:46:29;8.90;99.90
74488;DHT22;63019;51.080;13.642;2023-04-22T04:47:31;8.90;99.90
74488;DHT22;63019;51.080;13.642;2023-04-22T04:48:34;8.90;99.90
74488;DHT22;63019;51.080;13.642;2023-04-22T04:49:36;8.90;99.90
74488;DHT22;63019;51.080;13.642;2023-04-22T04:50:42;9.00;99.90
74488;DHT22;63019;51.080;13.642;2023-04-22T04:51:43;8.90;99.90
74488;DHT22;63019;51.080;13.642;2023-04-22T04:52:48;8.90;99.90
74488;DHT22;63019;51.080;13.642;2023-04-22T04:53:50;8.90;99.90
74488;DHT22;63019;51.080;13.642;2023-04-22T04:54:52;8.90;99.90
74488;DHT22;63019;51.080;13.642;2023-04-22T04:55:53;8.90;99.90
74488;DHT22;63019;51.080;13.642;2023-04-22T04:56:55;8.80;99.90
74488;DHT22;63019;51.080;13.642;2023-04-22T04:57:57;8.80;99.90
74488;DHT22;63019;51.080;13.642;2023-04-22T04:58:59;8.80;99.90
74488;DHT22;63019;51.080;13.642;2023-04-22T05:00:01;8.70;99.90
74488;DHT22;63019;51.080;13.642;2023-04-22T05:01:03;8.70;99.90
74488;DHT22;63019;51.080;13.642;2023-04-22T05:02:05;8.70;99.90
74488;DHT22;63019;51.080;13.642;2023-04-22T05:03:07;8.70;99.90
74488;DHT22;63019;51.080;13.642;2023-04-22T05:04:09;8.70;99.90
74488;DHT22;63019;51.080;13.642;2023-04-22T05:05:12;8.70;99.90
74488;DHT22;63019;51.080;13.642;2023-04-22T05:06:13;8.70;99.90
74488;DHT22;63019;51.080;13.642;2023-04-22T05:07:15;8.70;99.90
74488;DHT22;63019;51.080;13.642;2023-04-22T05:08:17;8.70;99.90
74488;DHT22;63019;51.080;13.642;2023-04-22T05:09:19;8.70;99.90
74488;DHT22;63019;51.080;13.642;2023-04-22T05:10:21;8.70;99.90
74488;DHT22;63019;51.080;13.642;2023-04-22T05:11:22;8.70;99.90
74488;DHT22;63019;51.080;13.642;2023-04-22T05:12:24;8.70;99.90
74488;DHT22;63019;51.080;13.642;2023-04-22T05:13:26;8.70;99.90
74488;DHT22;63019;51.080;13.642;2023-04-22T05:14:29;8.70;99.90
74488;DHT22;63019;51.080;13.642;2023-04-22T05:15:31;8.70;99.90
74488;DHT22;63019;51.080;13.642;2023-04-22T05:16:33;8.80;99.90
74488;DHT22;63019;51.080;13.642;2023-04-22T05:17:35;8.80;99.90
74488;DHT22;63019;51.080;13.642;2023-04-22T05:18:37;8.80;99.90
74488;DHT22;63019;51.080;13.642;2023-04-22T05:19:41;8.80;99.90
74488;DHT22;63019;51.080;13.642;2023-04-22T05:20:43;8.80;99.90
74488;DHT22;63019;51.080;13.642;2023-04-22T05:21:44;8.80;99.90
74488;DHT22;63019;51.080;13.642;2023-04-22T05:22:46;8.90;99.90
74488;DHT22;63019;51.080;13.642;2023-04-22T05:23:48;8.90;99.90
74488;DHT22;63019;51.080;13.642;2023-04-22T05:24:50;8.90;99.90
74488;DHT22;63019;51.080;13.642;2023-04-22T05:25:51;9.00;99.90
74488;DHT22;63019;51.080;13.642;2023-04-22T05:26:54;9.00;99.90
74488;DHT22;63019;51.080;13.642;2023-04-22T05:27:56;9.10;99.90
74488;DHT22;63019;51.080;13.642;2023-04-22T05:28:57;9.10;99.90
74488;DHT22;63019;51.080;13.642;2023-04-22T05:30:00;9.20;99.90
74488;DHT22;63019;51.080;13.642;2023-04-22T05:31:01;9.30;99.90
74488;DHT22;63019;51.080;13.642;2023-04-22T05:32:03;9.30;99.90
74488;DHT22;63019;51.080;13.642;2023-04-22T05:33:05;9.40;99.90
74488;DHT22;63019;51.080;13.642;2023-04-22T05:34:09;9.40;99.90
74488;DHT22;63019;51.080;13.642;2023-04-22T05:35:12;9.50;99.90
74488;DHT22;63019;51.080;13.642;2023-04-22T05:36:14;9.50;99.90
74488;DHT22;63019;51.080;13.642;2023-04-22T05:37:16;9.60;99.90
74488;DHT22;63019;51.080;13.642;2023-04-22T05:38:18;9.60;99.90
74488;DHT22;63019;51.080;13.642;2023-04-22T05:39:19;9.70;99.90
74488;DHT22;63019;51.080;13.642;2023-04-22T05:40:21;9.70;99.90
74488;DHT22;63019;51.080;13.642;2023-04-22T05:41:23;9.80;99.90
74488;DHT22;63019;51.080;13.642;2023-04-22T05:42:25;9.80;99.90
74488;DHT22;63019;51.080;13.642;2023-04-22T05:43:27;9.90;99.90
74488;DHT22;63019;51.080;13.642;2023-04-22T05:44:28;9.90;99.90
74488;DHT22;63019;51.080;13.642;2023-04-22T05:45:30;10.00;99.90
74488;DHT22;63019;51.080;13.642;2023-04-22T05:46:32;10.00;99.90
74488;DHT22;63019;51.080;13.642;2023-04-22T05:47:34;10.10;99.90
74488;DHT22;63019;51.080;13.642;2023-04-22T05:48:36;10.10;99.90
74488;DHT22;63019;51.080;13.642;2023-04-22T05:49:37;10.20;99.90
74488;DHT22;63019;51.080;13.642;2023-04-22T05:50:40;10.30;99.90
74488;DHT22;63019;51.080;13.642;2023-04-22T05:51:41;10.30;99.90
74488;DHT22;63019;51.080;13.642;2023-04-22T05:52:43;10.40;99.90
74488;DHT22;63019;51.080;13.642;2023-04-22T05:53:45;10.40;99.90
74488;DHT22;63019;51.080;13.642;2023-04-22T05:54:47;10.40;99.90
74488;DHT22;63019;51.080;13.642;2023-04-22T05:55:49;10.50;99.90
74488;DHT22;63019;51.080;13.642;2023-04-22T05:56:51;10.50;99.90
74488;DHT22;63019;51.080;13.642;2023-04-22T05:57:53;10.50;99.90
74488;DHT22;63019;51.080;13.642;2023-04-22T05:58:54;10.60;99.90
74488;DHT22;63019;51.080;13.642;2023-04-22T05:59:58;10.70;99.90
74488;DHT22;63019;51.080;13.642;2023-04-22T06:01:00;10.70;99.90
74488;DHT22;63019;51.080;13.642;2023-04-22T06:02:02;10.80;99.90
74488;DHT22;63019;51.080;13.642;2023-04-22T06:03:04;10.80;99.90
74488;DHT22;63019;51.080;13.642;2023-04-22T06:04:06;10.80;99.90
74488;DHT22;63019;51.080;13.642;2023-04-22T06:05:10;10.90;99.90
74488;DHT22;63019;51.080;13.642;2023-04-22T06:06:12;10.90;99.90
74488;DHT22;63019;51.080;13.642;2023-04-22T06:07:14;11.00;99.90
74488;DHT22;63019;51.080;13.642;2023-04-22T06:08:16;11.00;99.90
74488;DHT22;63019;51.080;13.642;2023-04-22T06:09:19;11.00;99.90
74488;DHT22;63019;51.080;13.642;2023-04-22T06:10:21;11.10;99.90
74488;DHT22;63019;51.080;13.642;2023-04-22T06:11:23;11.10;99.90
74488;DHT22;63019;51.080;13.642;2023-04-22T06:12:25;11.10;99.90
74488;DHT22;63019;51.080;13.642;2023-04-22T06:13:27;11.20;99.90
74488;DHT22;63019;51.080;13.642;2023-04-22T06:14:29;11.30;99.90
74488;DHT22;63019;51.080;13.642;2023-04-22T06:15:32;11.30;99.90
74488;DHT22;63019;51.080;13.642;2023-04-22T06:16:34;11.40;99.90
74488;DHT22;63019;51.080;13.642;2023-04-22T06:17:36;11.40;99.90
74488;DHT22;63019;51.080;13.642;2023-04-22T06:18:38;11.50;99.90
74488;DHT22;63019;51.080;13.642;2023-04-22T06:19:40;11.50;99.90
74488;DHT22;63019;51.080;13.642;2023-04-22T06:20:42;11.60;99.90
74488;DHT22;63019;51.080;13.642;2023-04-22T06:21:43;11.60;99.90
74488;DHT22;63019;51.080;13.642;2023-04-22T06:22:45;11.60;99.90
74488;DHT22;63019;51.080;13.642;2023-04-22T06:23:47;11.70;99.90
74488;DHT22;63019;51.080;13.642;2023-04-22T06:24:50;11.70;99.90
74488;DHT22;63019;51.080;13.642;2023-04-22T06:25:52;11.80;99.90
74488;DHT22;63019;51.080;13.642;2023-04-22T06:26:53;11.80;99.90
74488;DHT22;63019;51.080;13.642;2023-04-22T06:27:56;11.90;99.90
74488;DHT22;63019;51.080;13.642;2023-04-22T06:28:57;11.90;99.90
74488;DHT22;63019;51.080;13.642;2023-04-22T06:29:59;12.00;99.90
74488;DHT22;63019;51.080;13.642;2023-04-22T06:31:01;12.00;99.90
74488;DHT22;63019;51.080;13.642;2023-04-22T06:32:03;12.10;99.90